Time;durP1;ratioP1;P1;durP2;ratioP2;P2;SDS_P1;SDS_P2;PMS_P1;PMS_P2;Temp;Humidity;BMP_temperature;BMP_pressure;BME280_temperature;BME280_humidity;BME280_pressure;Samples;Min_cycle;Max_cycle;Signal;HPM_P1;HPM_P2
2023/04/22 00:01:34;;;;;;;5.27;3.20;;;12.50;98.00;;;;;;5053069;28;20474;-66
2023/04/22 00:04:01;;;;;;;10.60;4.43;;;12.70;98.00;;;;;;5053111;28;20465;-65
2023/04/22 00:06:28;;;;;;;7.50;3.93;;;12.80;98.00;;;;;;5052671;28;20463;-65
2023/04/22 00:08:55;;;;;;;5.20;2.93;;;12.70;98.00;;;;;;5052785;28;20488;-67
2023/04/22 00:11:23;;;;;;;7.97;3.33;;;12.80;98.00;;;;;;5051681;28;20482;-65
2023/04/22 00:13:50;;;;;;;6.90;3.13;;;12.90;98.00;;;;;;5051748;28;20506;-65
2023/04/22 00:16:20;;;;;;;5.97;3.40;;;12.90;98.00;;;;;;5052682;28;20492;-65
2023/04/22 00:18:47;;;;;;;8.37;3.97;;;12.80;98.00;;;;;;5052582;28;20455;-67
2023/04/22 00:21:14;;;;;;;7.00;3.97;;;12.60;98.00;;;;;;5052750;28;20458;-65
2023/04/22 00:23:44;;;;;;;7.70;3.97;;;12.60;98.00;;;;;;5050905;28;20863;-65
2023/04/22 00:26:11;;;;;;;8.10;3.73;;;12.60;98.00;;;;;;5052259;28;20495;-66
2023/04/22 00:28:39;;;;;;;6.30;3.33;;;12.50;98.00;;;;;;5034807;28;20471;-64
2023/04/22 00:31:07;;;;;;;6.63;3.60;;;12.40;98.00;;;;;;5052381;28;20793;-65
2023/04/22 00:33:35;;;;;;;5.47;3.20;;;12.30;98.00;;;;;;5052539;28;20469;-65
2023/04/22 00:36:02;;;;;;;8.60;3.60;;;12.20;98.00;;;;;;5052293;28;20507;-65
2023/04/22 00:38:29;;;;;;;5.40;3.50;;;12.20;98.00;;;;;;5052457;28;20504;-65
2023/04/22 00:40:57;;;;;;;6.27;3.43;;;12.20;98.00;;;;;;5052455;28;20463;-65
2023/04/22 00:43:24;;;;;;;7.07;3.77;;;12.20;98.00;;;;;;5052471;28;21111;-65
2023/04/22 00:45:51;;;;;;;6.27;3.43;;;12.40;98.00;;;;;;5052468;28;20460;-64
2023/04/22 00:48:21;;;;;;;7.50;3.80;;;12.50;98.00;;;;;;5052437;28;20456;-65
2023/04/22 00:50:49;;;;;;;6.13;3.27;;;12.50;98.00;;;;;;5052574;28;20479;-66
2023/04/22 00:53:16;;;;;;;9.90;3.73;;;12.50;98.00;;;;;;5052553;28;20452;-65
2023/04/22 00:55:44;;;;;;;6.80;3.50;;;12.50;98.00;;;;;;5051925;28;20526;-65
2023/04/22 00:58:11;;;;;;;10.20;4.10;;;12.40;98.00;;;;;;5052120;28;20471;-66
2023/04/22 01:00:38;;;;;;;5.30;2.87;;;12.30;98.00;;;;;;5051994;28;20469;-65
2023/04/22 01:03:07;;;;;;;7.67;3.27;;;12.20;98.00;;;;;;5052191;28;20458;-66
2023/04/22 01:05:35;;;;;;;10.63;3.60;;;12.20;98.00;;;;;;5051934;28;21012;-65
2023/04/22 01:08:06;;;;;;;5.13;3.10;;;12.40;98.00;;;;;;5051697;28;20476;-66
2023/04/22 01:10:33;;;;;;;12.30;3.00;;;12.50;98.00;;;;;;5051974;28;20487;-65
2023/04/22 01:13:00;;;;;;;6.17;3.80;;;12.40;98.00;;;;;;5052019;28;20462;-65
2023/04/22 01:15:27;;;;;;;5.60;2.97;;;12.30;98.00;;;;;;5052059;28;21023;-66
2023/04/22 01:17:55;;;;;;;6.67;3.77;;;12.30;98.00;;;;;;5051852;28;20451;-65
2023/04/22 01:20:22;;;;;;;5.57;3.40;;;12.10;98.00;;;;;;5050596;28;20466;-65
2023/04/22 01:22:53;;;;;;;7.60;3.67;;;12.00;98.00;;;;;;5051693;28;20462;-64
2023/04/22 01:25:22;;;;;;;7.47;3.23;;;11.90;98.00;;;;;;5051577;28;20923;-64
2023/04/22 01:27:50;;;;;;;5.00;3.20;;;11.80;98.00;;;;;;5051537;28;20460;-66
2023/04/22 01:30:23;;;;;;;4.57;2.97;;;11.70;98.00;;;;;;5051646;28;20993;-66
2023/04/22 01:35:21;;;;;;;6.40;3.20;;;11.80;98.00;;;;;;5051931;28;20783;-65
2023/04/22 01:37:48;;;;;;;5.27;3.10;;;11.70;98.00;;;;;;5055800;28;20838;-65
2023/04/22 01:40:18;;;;;;;5.93;3.13;;;11.70;98.00;;;;;;5055874;28;20456;-65
2023/04/22 01:42:47;;;;;;;6.17;3.10;;;11.90;98.00;;;;;;5056030;28;20581;-66
2023/04/22 01:45:16;;;;;;;4.63;2.80;;;12.00;98.00;;;;;;5056159;28;20959;-66
2023/04/22 01:47:43;;;;;;;7.27;3.30;;;12.10;98.00;;;;;;5055935;28;20931;-65
2023/04/22 01:50:11;;;;;;;6.43;3.40;;;12.10;98.00;;;;;;5055483;28;20570;-66
2023/04/22 01:52:38;;;;;;;10.20;4.37;;;12.10;98.00;;;;;;5055539;28;20894;-65
2023/04/22 01:55:06;;;;;;;8.17;3.20;;;12.10;98.00;;;;;;5055394;28;20950;-65
2023/04/22 01:57:33;;;;;;;6.10;3.20;;;12.10;98.00;;;;;;5055201;28;21016;-65
2023/04/22 02:00:02;;;;;;;7.57;3.70;;;12.00;98.00;;;;;;5055407;28;20460;-65
2023/04/22 02:02:29;;;;;;;7.33;3.50;;;11.90;98.00;;;;;;5055143;28;20461;-67
2023/04/22 02:04:56;;;;;;;7.73;3.47;;;11.70;98.00;;;;;;5055471;28;20460;-65
2023/04/22 02:07:23;;;;;;;6.03;3.40;;;11.70;98.00;;;;;;5055068;28;20938;-66
2023/04/22 02:09:50;;;;;;;4.83;2.80;;;11.70;98.00;;;;;;5055296;28;20836;-67
2023/04/22 02:12:19;;;;;;;5.00;3.30;;;11.60;98.00;;;;;;5055173;28;20875;-65
2023/04/22 02:14:47;;;;;;;8.10;4.00;;;11.60;98.00;;;;;;5053974;28;20457;-65
2023/04/22 02:17:16;;;;;;;10.60;3.90;;;11.70;98.00;;;;;;5054724;28;20459;-65
2023/04/22 02:19:43;;;;;;;7.97;3.40;;;11.70;98.00;;;;;;5054935;28;20456;-65
2023/04/22 02:22:11;;;;;;;7.53;3.20;;;11.70;98.00;;;;;;5055037;28;20471;-66
2023/04/22 02:24:39;;;;;;;7.30;3.27;;;11.80;98.00;;;;;;5053751;28;20460;-65
2023/04/22 02:27:07;;;;;;;6.10;3.30;;;11.80;98.00;;;;;;5055120;28;20456;-65
2023/04/22 02:29:35;;;;;;;7.00;3.53;;;11.70;98.00;;;;;;5053723;28;20560;-65
2023/04/22 02:32:02;;;;;;;8.37;3.37;;;11.70;98.00;;;;;;5053521;28;20459;-66
2023/04/22 02:34:31;;;;;;;4.90;2.93;;;11.80;98.00;;;;;;5055021;28;20461;-66
2023/04/22 02:36:58;;;;;;;7.17;3.63;;;11.60;98.00;;;;;;5055014;28;20468;-65
2023/04/22 02:39:25;;;;;;;6.20;3.43;;;11.50;98.00;;;;;;5054851;28;20949;-66
2023/04/22 02:41:53;;;;;;;6.23;3.00;;;11.40;98.00;;;;;;5054767;28;20454;-65
2023/04/22 02:44:20;;;;;;;5.73;3.57;;;11.60;98.00;;;;;;5054022;28;20518;-65
2023/04/22 02:46:47;;;;;;;5.93;3.40;;;11.40;98.00;;;;;;5054357;28;20445;-65
2023/04/22 02:49:14;;;;;;;7.10;3.77;;;11.40;98.00;;;;;;5036599;28;20492;-65
2023/04/22 02:51:44;;;;;;;8.17;3.60;;;11.30;98.00;;;;;;5054428;28;20512;-65
2023/04/22 02:54:11;;;;;;;5.47;3.13;;;11.30;98.00;;;;;;5053079;28;20457;-67
2023/04/22 02:56:38;;;;;;;6.53;3.30;;;11.30;98.00;;;;;;5054215;28;20460;-66
2023/04/22 02:59:05;;;;;;;6.13;3.50;;;11.30;98.00;;;;;;5054234;28;20456;-64
2023/04/22 03:01:32;;;;;;;7.83;3.67;;;11.30;98.00;;;;;;5036496;28;20953;-65
2023/04/22 03:03:59;;;;;;;5.33;3.00;;;11.30;98.00;;;;;;5054214;28;20455;-66
2023/04/22 03:06:26;;;;;;;5.60;3.00;;;11.30;98.00;;;;;;5052923;28;20468;-65
2023/04/22 03:08:55;;;;;;;5.87;3.10;;;11.30;98.00;;;;;;5054200;28;20517;-65
2023/04/22 03:11:22;;;;;;;6.13;3.10;;;11.20;98.00;;;;;;5069457;28;20503;-65
2023/04/22 03:13:49;;;;;;;6.77;3.13;;;11.00;98.00;;;;;;5054112;28;20515;-64
2023/04/22 03:16:17;;;;;;;7.43;3.60;;;10.90;98.00;;;;;;5054201;28;20457;-65
2023/04/22 03:18:44;;;;;;;6.57;3.30;;;;;;;;;;5053867;28;20651;-65
2023/04/22 03:21:12;;;;;;;5.20;3.33;;;10.80;98.00;;;;;;5054107;28;20454;-64
2023/04/22 03:23:39;;;;;;;8.10;3.67;;;10.90;98.00;;;;;;5052651;28;20455;-66
2023/04/22 03:26:07;;;;;;;7.97;3.90;;;10.90;98.00;;;;;;5054010;28;20818;-65
2023/04/22 03:28:35;;;;;;;5.77;3.27;;;10.90;98.00;;;;;;5054021;28;20455;-65
2023/04/22 03:31:03;;;;;;;15.47;3.20;;;10.80;98.00;;;;;;5052715;28;20485;-64
2023/04/22 03:33:31;;;;;;;5.20;2.90;;;10.90;98.00;;;;;;5053867;28;20528;-65
2023/04/22 03:35:58;;;;;;;9.27;3.40;;;11.00;98.00;;;;;;5053666;28;20849;-66
2023/04/22 03:38:27;;;;;;;5.60;3.23;;;11.00;98.00;;;;;;5053463;28;20482;-64
2023/04/22 03:40:54;;;;;;;5.57;3.17;;;11.00;98.00;;;;;;5053566;28;20493;-66
2023/04/22 03:43:24;;;;;;;4.73;3.27;;;11.00;98.00;;;;;;5053396;28;20809;-65
2023/04/22 03:45:52;;;;;;;8.00;3.83;;;10.90;98.00;;;;;;5053379;28;20518;-65
2023/04/22 03:48:19;;;;;;;6.27;3.97;;;10.80;98.00;;;;;;5053287;28;20457;-66
2023/04/22 03:50:46;;;;;;;7.37;3.77;;;10.80;98.00;;;;;;5052233;28;20488;-65
2023/04/22 03:53:13;;;;;;;6.63;3.03;;;10.70;98.00;;;;;;5051928;28;20453;-65
2023/04/22 03:55:40;;;;;;;4.97;3.13;;;10.60;98.00;;;;;;5053261;28;20497;-65
2023/04/22 03:58:08;;;;;;;5.07;3.10;;;10.70;98.00;;;;;;5052548;28;20491;-65
2023/04/22 04:00:36;;;;;;;8.07;3.30;;;10.70;98.00;;;;;;5051936;28;21012;-67
2023/04/22 04:03:03;;;;;;;5.67;3.30;;;10.70;98.00;;;;;;5052859;28;20466;-65
2023/04/22 04:05:30;;;;;;;5.70;3.40;;;10.70;98.00;;;;;;5053449;28;20458;-65
2023/04/22 04:07:57;;;;;;;8.20;3.97;;;10.70;98.00;;;;;;5052454;28;20800;-66
2023/04/22 04:10:24;;;;;;;7.77;3.87;;;10.80;98.00;;;;;;5052927;28;20478;-65
2023/04/22 04:12:51;;;;;;;7.20;3.63;;;10.90;98.00;;;;;;5052931;28;20464;-65
2023/04/22 04:15:20;;;;;;;7.30;3.27;;;10.90;98.00;;;;;;5053031;28;20455;-65
2023/04/22 04:17:49;;;;;;;8.13;3.53;;;10.80;98.00;;;;;;5052878;28;20455;-67
2023/04/22 04:20:16;;;;;;;6.00;3.40;;;10.90;98.00;;;;;;5052921;28;20470;-66
2023/04/22 04:22:43;;;;;;;4.93;2.90;;;10.90;98.00;;;;;;5053014;28;20964;-65
2023/04/22 04:25:11;;;;;;;4.97;3.10;;;11.00;98.00;;;;;;5053080;28;20469;-66
2023/04/22 04:27:40;;;;;;;10.13;3.20;;;11.00;98.00;;;;;;5052383;28;20450;-64
2023/04/22 04:30:09;;;;;;;7.00;3.30;;;10.70;98.00;;;;;;5052260;28;20540;-65
2023/04/22 04:32:36;;;;;;;7.10;3.67;;;10.70;98.00;;;;;;5052161;28;20457;-65
2023/04/22 04:35:06;;;;;;;8.60;4.10;;;10.60;98.00;;;;;;5051900;28;20458;-65
2023/04/22 04:37:33;;;;;;;4.37;2.63;;;10.50;98.00;;;;;;5052395;28;20507;-66
2023/04/22 04:40:00;;;;;;;6.40;3.50;;;10.60;98.00;;;;;;5052489;28;20454;-64
2023/04/22 04:42:29;;;;;;;5.57;2.90;;;10.70;98.00;;;;;;5052268;28;20519;-64
2023/04/22 04:44:59;;;;;;;8.57;3.53;;;10.80;98.00;;;;;;5051688;28;20462;-65
2023/04/22 04:47:27;;;;;;;5.70;3.00;;;10.60;98.00;;;;;;5052268;28;20789;-65
2023/04/22 04:49:54;;;;;;;6.20;3.43;;;10.50;98.00;;;;;;5050871;28;20453;-64
2023/04/22 04:52:22;;;;;;;5.50;2.80;;;10.60;98.00;;;;;;5052276;28;20860;-67
2023/04/22 04:54:49;;;;;;;6.10;3.00;;;10.50;98.00;;;;;;5052192;28;20461;-65
2023/04/22 04:57:19;;;;;;;5.27;3.67;;;10.50;98.00;;;;;;5052100;28;20508;-65
2023/04/22 04:59:46;;;;;;;6.00;3.47;;;10.60;98.00;;;;;;5051149;28;20884;-65
2023/04/22 05:02:14;;;;;;;6.00;3.40;;;10.50;98.00;;;;;;5051782;28;20472;-68
2023/04/22 05:04:41;;;;;;;8.00;3.37;;;10.40;98.00;;;;;;5052266;28;20602;-69
2023/04/22 05:07:08;;;;;;;7.63;3.10;;;10.40;98.00;;;;;;5051918;28;20587;-67
2023/04/22 05:09:36;;;;;;;5.03;3.13;;;10.40;98.00;;;;;;5050668;28;20675;-69
2023/04/22 05:12:03;;;;;;;4.70;3.10;;;10.40;98.00;;;;;;5051520;28;20492;-66
2023/04/22 05:14:31;;;;;;;7.27;3.40;;;10.40;98.00;;;;;;5052151;28;20458;-67
2023/04/22 05:16:58;;;;;;;6.37;2.90;;;10.50;98.00;;;;;;5052134;28;20453;-67
2023/04/22 05:19:26;;;;;;;6.80;3.20;;;10.60;98.00;;;;;;5052179;28;20464;-66
2023/04/22 05:21:54;;;;;;;5.20;3.40;;;10.60;98.00;;;;;;5051815;28;20458;-66
2023/04/22 05:24:22;;;;;;;7.00;3.57;;;10.70;98.00;;;;;;5051442;28;20953;-67
2023/04/22 05:26:50;;;;;;;5.80;2.97;;;10.70;98.00;;;;;;5052356;28;20472;-65
2023/04/22 05:29:17;;;;;;;5.27;2.53;;;10.70;98.00;;;;;;5051576;28;20990;-65
2023/04/22 05:31:44;;;;;;;14.63;5.37;;;10.90;98.00;;;;;;5051788;28;20488;-65
2023/04/22 05:34:11;;;;;;;10.50;3.77;;;10.80;98.00;;;;;;5051610;28;20859;-65
2023/04/22 05:36:40;;;;;;;7.00;3.47;;;10.80;98.00;;;;;;5051819;28;20550;-65
2023/04/22 05:39:07;;;;;;;5.70;3.67;;;10.70;98.00;;;;;;5051738;28;20463;-65
2023/04/22 05:41:34;;;;;;;4.70;3.07;;;10.60;98.00;;;;;;5051459;28;20949;-65
2023/04/22 05:44:02;;;;;;;8.03;3.53;;;10.60;98.00;;;;;;5049579;28;20456;-64
2023/04/22 05:46:32;;;;;;;5.90;3.13;;;10.60;98.00;;;;;;5051783;28;20460;-66
2023/04/22 05:48:59;;;;;;;6.23;3.10;;;10.70;98.00;;;;;;5051484;28;20811;-64
2023/04/22 05:51:27;;;;;;;6.10;3.33;;;11.00;98.00;;;;;;5051419;28;20481;-65
2023/04/22 05:53:55;;;;;;;4.90;3.20;;;11.20;98.00;;;;;;5051548;28;20801;-65
2023/04/22 05:56:22;;;;;;;4.60;2.60;;;11.30;98.00;;;;;;5051477;28;20508;-65
2023/04/22 05:58:49;;;;;;;4.83;3.17;;;11.40;98.00;;;;;;5051537;28;20468;-65
2023/04/22 06:01:18;;;;;;;3.73;2.83;;;11.50;98.00;;;;;;5051385;28;20465;-64
2023/04/22 06:03:45;;;;;;;3.97;2.80;;;11.50;98.00;;;;;;5051473;28;20454;-62
2023/04/22 06:06:12;;;;;;;7.70;3.30;;;11.40;98.00;;;;;;5051091;28;20468;-63
2023/04/22 06:08:39;;;;;;;6.30;2.83;;;11.30;98.00;;;;;;5051427;28;20472;-63
2023/04/22 06:11:06;;;;;;;6.70;3.13;;;11.40;98.00;;;;;;5051576;28;20482;-64
2023/04/22 06:13:33;;;;;;;6.90;3.37;;;11.40;98.00;;;;;;5051418;28;20554;-65
2023/04/22 06:16:00;;;;;;;8.43;3.83;;;11.50;98.00;;;;;;5051039;28;20457;-63
2023/04/22 06:18:31;;;;;;;5.27;3.40;;;11.60;98.00;;;;;;5051721;28;20872;-64
2023/04/22 06:20:58;;;;;;;7.10;3.40;;;11.60;98.00;;;;;;5051690;28;20485;-63
2023/04/22 06:23:25;;;;;;;7.33;3.47;;;11.60;98.00;;;;;;5054554;28;20950;-64
2023/04/22 06:25:52;;;;;;;6.50;3.37;;;11.80;98.00;;;;;;5054901;28;20460;-63
2023/04/22 06:28:19;;;;;;;7.43;3.80;;;11.70;98.00;;;;;;5054800;28;20467;-64
2023/04/22 06:30:46;;;;;;;4.90;3.30;;;11.80;98.00;;;;;;5054717;28;20485;-64
2023/04/22 06:33:13;;;;;;;10.13;3.67;;;12.10;98.00;;;;;;5054497;28;20469;-64
2023/04/22 06:35:41;;;;;;;8.10;3.30;;;12.10;98.00;;;;;;5054850;28;20462;-63
2023/04/22 06:38:09;;;;;;;5.40;3.67;;;12.20;98.00;;;;;;5054696;28;20469;-63
2023/04/22 06:40:36;;;;;;;4.67;3.00;;;12.30;98.00;;;;;;5054608;28;20459;-63
2023/04/22 06:43:03;;;;;;;6.10;3.40;;;12.40;98.00;;;;;;5054628;28;20927;-64
2023/04/22 06:45:31;;;;;;;8.20;3.20;;;12.40;98.00;;;;;;5054485;28;20469;-63
2023/04/22 06:47:58;;;;;;;5.37;2.90;;;12.50;98.00;;;;;;5054402;28;20455;-63
2023/04/22 06:50:26;;;;;;;5.70;3.37;;;12.60;98.00;;;;;;5054271;28;20807;-64
2023/04/22 06:52:54;;;;;;;10.27;4.27;;;12.80;98.00;;;;;;5054201;28;20822;-64
2023/04/22 06:55:21;;;;;;;7.93;3.80;;;13.00;98.00;;;;;;5050819;28;20457;-64
2023/04/22 06:57:50;;;;;;;8.03;4.30;;;13.10;98.00;;;;;;5053845;28;20528;-63
2023/04/22 07:00:18;;;;;;;7.17;3.87;;;13.40;98.00;;;;;;5054234;28;20981;-63
2023/04/22 07:02:45;;;;;;;6.80;4.00;;;13.50;98.00;;;;;;5052995;28;20528;-63
2023/04/22 07:05:15;;;;;;;6.23;3.40;;;13.70;98.00;;;;;;5054102;28;20533;-63
2023/04/22 07:07:43;;;;;;;6.53;3.80;;;13.70;98.00;;;;;;5054030;28;20472;-64
2023/04/22 07:10:13;;;;;;;9.63;4.40;;;13.60;98.00;;;;;;5053884;28;20458;-65
2023/04/22 07:12:40;;;;;;;4.53;2.73;;;13.70;98.00;;;;;;5054141;28;20488;-64
2023/04/22 07:15:08;;;;;;;6.20;3.50;;;13.80;98.00;;;;;;5053976;28;20949;-64
2023/04/22 07:17:35;;;;;;;7.43;3.50;;;13.90;98.00;;;;;;5054260;28;20455;-63
2023/04/22 07:20:02;;;;;;;6.30;3.80;;;14.00;98.00;;;;;;5053564;28;20459;-63
2023/04/22 07:22:29;;;;;;;5.83;3.60;;;14.00;98.00;;;;;;5053592;28;20461;-63
2023/04/22 07:24:56;;;;;;;5.60;3.20;;;14.10;98.00;;;;;;5053313;28;20451;-64
2023/04/22 07:27:25;;;;;;;4.83;3.13;;;14.20;98.00;;;;;;5053794;28;20459;-64
2023/04/22 07:29:52;;;;;;;6.20;2.90;;;14.30;98.00;;;;;;5053609;28;20947;-63
2023/04/22 07:32:20;;;;;;;4.07;2.90;;;14.50;98.00;;;;;;5053692;28;21040;-64
2023/04/22 07:34:47;;;;;;;5.00;2.80;;;14.70;98.00;;;;;;5052989;28;20462;-64
2023/04/22 07:37:14;;;;;;;7.60;3.47;;;14.70;98.00;;;;;;5053805;28;20458;-64
2023/04/22 07:39:41;;;;;;;3.20;2.60;;;14.60;98.00;;;;;;5053588;28;20467;-62
2023/04/22 07:42:08;;;;;;;5.13;2.93;;;14.60;98.00;;;;;;5053655;28;20462;-64
2023/04/22 07:44:38;;;;;;;7.40;3.17;;;14.80;98.00;;;;;;5052602;28;20962;-64
2023/04/22 07:47:07;;;;;;;5.63;2.90;;;15.10;98.00;;;;;;5053904;28;20463;-64
2023/04/22 07:49:35;;;;;;;4.50;2.80;;;15.30;98.00;;;;;;5053550;28;20518;-62
2023/04/22 07:52:02;;;;;;;9.37;3.30;;;15.40;98.00;;;;;;5053539;28;20477;-64
2023/04/22 07:54:32;;;;;;;5.40;3.10;;;15.50;98.00;;;;;;5053805;28;20908;-63
2023/04/22 07:57:00;;;;;;;4.10;2.80;;;15.60;98.00;;;;;;5053526;28;20468;-65
2023/04/22 07:59:27;;;;;;;7.43;3.43;;;15.70;98.00;;;;;;5053241;28;20458;-63
2023/04/22 08:01:55;;;;;;;9.23;4.00;;;15.80;98.00;;;;;;5053245;28;20514;-64
2023/04/22 08:04:23;;;;;;;9.13;3.70;;;15.90;98.00;;;;;;5052731;28;20451;-64
2023/04/22 08:06:50;;;;;;;5.90;3.03;;;16.00;98.00;;;;;;5053120;28;20548;-63
2023/04/22 08:09:17;;;;;;;5.30;3.20;;;16.20;98.00;;;;;;5053169;28;20458;-64
2023/04/22 08:11:44;;;;;;;5.70;3.40;;;16.40;98.00;;;;;;5053100;28;20489;-64
2023/04/22 08:14:12;;;;;;;4.90;2.87;;;16.60;98.00;;;;;;5053050;28;20465;-64
2023/04/22 08:16:42;;;;;;;9.37;2.90;;;16.80;98.00;;;;;;5052897;28;20453;-64
2023/04/22 08:19:10;;;;;;;3.70;2.27;;;16.80;98.00;;;;;;5052736;28;20464;-64
2023/04/22 08:21:38;;;;;;;3.90;2.63;;;16.70;98.00;;;;;;5052988;28;20811;-63
2023/04/22 08:24:06;;;;;;;5.43;3.03;;;16.70;98.00;;;;;;5052598;28;20515;-66
2023/04/22 08:26:33;;;;;;;3.77;2.90;;;16.80;98.00;;;;;;5052590;28;20481;-63
2023/04/22 08:29:01;;;;;;;4.90;2.73;;;17.00;98.00;;;;;;5052570;28;20461;-63
2023/04/22 08:31:27;;;;;;;6.03;3.00;;;17.10;98.00;;;;;;5052588;28;20481;-64
2023/04/22 08:33:55;;;;;;;5.43;2.73;;;17.10;98.00;;;;;;5052633;28;20538;-63
2023/04/22 08:36:26;;;;;;;4.90;2.80;;;17.30;98.00;;;;;;5052574;28;20454;-63
2023/04/22 08:38:53;;;;;;;4.97;2.47;;;17.40;98.00;;;;;;5051348;28;20493;-64
2023/04/22 08:41:23;;;;;;;3.77;2.60;;;17.60;98.00;;;;;;5052274;28;20828;-65
2023/04/22 08:43:50;;;;;;;3.67;2.10;;;17.80;98.00;;;;;;5052359;28;20947;-64
2023/04/22 08:46:19;;;;;;;5.47;2.67;;;18.00;98.00;;;;;;5052200;28;20469;-65
2023/04/22 08:48:47;;;;;;;3.60;2.27;;;18.10;98.00;;;;;;5051849;28;20461;-63
2023/04/22 08:51:16;;;;;;;4.57;2.40;;;18.30;98.00;;;;;;5052429;28;20454;-63
2023/04/22 08:53:45;;;;;;;5.10;2.47;;;18.40;98.00;;;;;;5052431;28;20493;-66
2023/04/22 08:56:13;;;;;;;3.73;2.43;;;18.50;98.00;;;;;;5052311;28;20943;-64
2023/04/22 08:58:42;;;;;;;6.30;2.13;;;18.50;98.00;;;;;;5052422;28;20523;-65
2023/04/22 09:01:09;;;;;;;3.83;2.53;;;18.40;98.00;;;;;;5052334;28;20466;-65
2023/04/22 09:03:39;;;;;;;3.73;2.30;;;18.50;98.00;;;;;;5052526;28;21144;-65
2023/04/22 09:06:11;;;;;;;4.37;2.40;;;18.60;98.00;;;;;;5052209;28;20458;-64
2023/04/22 09:08:38;;;;;;;3.20;2.00;;;18.60;98.00;;;;;;5051858;28;20473;-65
2023/04/22 09:11:07;;;;;;;2.73;2.23;;;18.60;98.00;;;;;;5050644;28;20508;-64
2023/04/22 09:13:35;;;;;;;3.50;2.27;;;18.70;98.00;;;;;;5050105;28;20458;-64
2023/04/22 09:16:02;;;;;;;2.50;2.17;;;18.70;98.00;;;;;;5050639;28;20867;-64
2023/04/22 09:18:29;;;;;;;2.43;2.00;;;18.80;98.00;;;;;;5052032;28;20454;-64
2023/04/22 09:20:56;;;;;;;2.80;2.00;;;19.10;98.00;;;;;;5049924;28;20544;-65
2023/04/22 09:23:24;;;;;;;2.90;2.37;;;19.20;98.00;;;;;;5051890;28;20485;-64
2023/04/22 09:25:51;;;;;;;3.40;2.40;;;19.40;98.00;;;;;;5051905;28;20502;-64
2023/04/22 09:28:22;;;;;;;4.90;2.30;;;19.50;98.00;;;;;;5051823;28;20511;-64
2023/04/22 09:30:49;;;;;;;3.00;2.03;;;19.60;98.00;;;;;;5051826;28;20465;-63
2023/04/22 09:33:17;;;;;;;2.80;2.00;;;19.80;98.00;;;;;;5051518;28;20563;-64
2023/04/22 09:35:44;;;;;;;3.40;2.30;;;20.10;98.00;;;;;;5050494;28;20461;-64
2023/04/22 09:38:12;;;;;;;4.17;2.37;;;20.20;98.00;;;;;;5051591;28;20446;-63
2023/04/22 09:40:43;;;;;;;2.97;2.30;;;20.50;97.30;;;;;;5052136;28;20835;-65
2023/04/22 09:43:10;;;;;;;2.87;2.03;;;20.70;98.00;;;;;;5051968;28;20457;-65
2023/04/22 09:45:41;;;;;;;3.30;2.20;;;21.00;97.80;;;;;;5051923;28;20480;-66
2023/04/22 09:48:10;;;;;;;2.70;2.30;;;21.20;96.80;;;;;;5051708;28;20947;-66
2023/04/22 09:50:38;;;;;;;3.33;2.30;;;21.40;95.00;;;;;;5052279;28;20465;-63
2023/04/22 09:53:07;;;;;;;2.57;1.97;;;21.50;98.00;;;;;;5051602;28;20495;-66
2023/04/22 09:55:36;;;;;;;3.93;2.40;;;21.60;97.70;;;;;;5051744;28;20931;-64
2023/04/22 09:58:09;;;;;;;2.27;1.90;;;21.60;95.70;;;;;;5054928;28;20467;-64
2023/04/22 10:00:40;;;;;;;2.50;2.10;;;21.60;96.00;;;;;;5056007;28;20469;-65
2023/04/22 10:03:08;;;;;;;3.30;2.20;;;21.60;96.50;;;;;;5055647;28;20457;-64
2023/04/22 10:05:36;;;;;;;3.00;2.00;;;21.70;95.40;;;;;;5054366;28;20481;-63
2023/04/22 10:08:06;;;;;;;2.80;2.10;;;21.90;94.40;;;;;;5055244;28;20512;-64
2023/04/22 10:10:33;;;;;;;3.80;2.27;;;21.90;94.90;;;;;;5054138;28;20461;-62
2023/04/22 10:13:03;;;;;;;3.63;2.37;;;22.00;93.10;;;;;;5055060;28;20481;-65
2023/04/22 10:15:33;;;;;;;2.90;2.10;;;22.10;91.90;;;;;;5054866;28;20472;-65
2023/04/22 10:18:03;;;;;;;3.80;2.60;;;22.10;90.60;;;;;;5055209;28;20450;-63
2023/04/22 10:20:31;;;;;;;2.73;2.10;;;22.20;94.20;;;;;;5055014;28;20453;-66
2023/04/22 10:22:58;;;;;;;5.10;2.37;;;22.40;93.20;;;;;;5053799;28;20515;-64
2023/04/22 10:25:27;;;;;;;2.90;2.13;;;22.40;95.00;;;;;;5054837;28;20951;-65
2023/04/22 10:27:55;;;;;;;2.53;2.20;;;22.60;93.40;;;;;;5054988;28;20939;-65
2023/04/22 10:30:30;;;;;;;2.53;1.87;;;22.70;90.50;;;;;;5054950;28;20951;-64
2023/04/22 10:33:37;;;;;;;2.50;2.00;;;22.80;92.10;;;;;;5054919;28;20485;-66
2023/04/22 10:36:16;;;;;;;4.30;2.00;;;23.00;92.00;;;;;;5054930;28;20461;-64
2023/04/22 10:39:16;;;;;;;2.97;2.10;;;23.20;90.80;;;;;;5054741;28;20552;-65
2023/04/22 10:41:55;;;;;;;3.10;2.13;;;23.40;91.50;;;;;;5054898;28;20493;-65
2023/04/22 10:44:23;;;;;;;2.80;2.23;;;23.60;90.10;;;;;;5054876;28;20469;-65
2023/04/22 10:46:58;;;;;;;3.80;2.30;;;23.70;87.30;;;;;;5053572;28;20472;-64
2023/04/22 10:49:29;;;;;;;2.33;1.97;;;23.90;88.40;;;;;;5054590;28;20453;-65
2023/04/22 10:51:58;;;;;;;2.53;2.07;;;24.10;87.60;;;;;;5054963;28;20465;-63
2023/04/22 10:54:57;;;;;;;3.37;2.00;;;24.40;84.10;;;;;;5054615;28;20981;-64
2023/04/22 10:57:38;;;;;;;4.23;2.37;;;24.40;84.10;;;;;;5054738;28;20500;-65
2023/04/22 11:00:40;;;;;;;2.80;2.37;;;24.50;82.90;;;;;;5053470;28;20454;-64
2023/04/22 11:03:12;;;;;;;2.40;2.03;;;24.70;84.20;;;;;;5052907;28;20492;-65
2023/04/22 11:05:41;;;;;;;3.13;2.10;;;24.80;85.30;;;;;;5050928;28;20461;-67
2023/04/22 11:08:16;;;;;;;2.47;2.00;;;24.80;82.40;;;;;;5053172;28;20465;-64
2023/04/22 11:10:45;;;;;;;3.10;2.13;;;24.90;85.90;;;;;;5053079;28;20461;-65
2023/04/22 11:13:15;;;;;;;2.80;2.30;;;25.00;85.60;;;;;;5053531;28;20979;-64
2023/04/22 11:15:44;;;;;;;2.77;1.83;;;25.30;82.70;;;;;;5053361;28;20462;-66
2023/04/22 11:18:15;;;;;;;5.87;2.10;;;25.40;81.70;;;;;;5053328;28;20465;-63
2023/04/22 11:20:43;;;;;;;2.57;2.23;;;25.50;82.50;;;;;;5053312;28;20462;-65
2023/04/22 11:23:11;;;;;;;3.10;1.90;;;25.60;84.10;;;;;;5053029;28;20450;-65
2023/04/22 11:25:38;;;;;;;3.10;2.37;;;25.70;80.10;;;;;;5053739;28;20453;-64
2023/04/22 11:28:05;;;;;;;3.17;2.30;;;25.60;78.70;;;;;;5053775;28;20462;-64
2023/04/22 11:30:32;;;;;;;3.40;2.37;;;25.60;76.90;;;;;;5053867;28;20944;-65
2023/04/22 11:33:00;;;;;;;2.67;2.20;;;25.70;80.50;;;;;;5054004;28;20489;-66
2023/04/22 11:35:30;;;;;;;2.83;2.07;;;26.00;81.80;;;;;;5053532;28;20465;-66
2023/04/22 11:38:00;;;;;;;2.60;2.10;;;26.40;80.20;;;;;;5053614;28;20553;-67
2023/04/22 11:40:30;;;;;;;2.40;2.00;;;26.50;75.90;;;;;;5052429;28;20462;-64
2023/04/22 11:42:57;;;;;;;3.07;2.37;;;26.30;70.80;;;;;;5053601;28;20462;-64
2023/04/22 11:45:25;;;;;;;6.67;2.33;;;26.60;71.70;;;;;;5053554;28;20454;-65
2023/04/22 11:47:53;;;;;;;3.00;2.40;;;26.50;72.40;;;;;;5053653;28;20923;-65
2023/04/22 11:50:22;;;;;;;2.73;2.30;;;26.50;66.30;;;;;;5053540;28;20457;-65
2023/04/22 11:52:51;;;;;;;2.00;1.93;;;26.50;70.80;;;;;;5053428;28;20493;-65
2023/04/22 11:55:24;;;;;;;3.10;2.03;;;26.60;69.40;;;;;;5053561;28;20453;-66
2023/04/22 11:57:54;;;;;;;2.90;2.10;;;26.80;71.60;;;;;;5053554;28;20477;-65
2023/04/22 12:00:22;;;;;;;3.37;2.53;;;27.00;71.50;;;;;;5053341;28;20456;-66
2023/04/22 12:03:00;;;;;;;2.47;2.30;;;26.80;66.20;;;;;;5051730;28;20523;-67
2023/04/22 12:05:38;;;;;;;2.50;2.17;;;26.80;68.60;;;;;;5047173;28;20470;-66
2023/04/22 12:08:08;;;;;;;3.10;2.27;;;26.40;68.20;;;;;;5031247;28;20462;-64
2023/04/22 12:10:43;;;;;;;2.90;2.13;;;25.80;69.30;;;;;;5032742;28;20490;-63
2023/04/22 12:13:10;;;;;;;6.10;2.60;;;25.80;69.80;;;;;;5032239;28;20482;-65
2023/04/22 12:15:39;;;;;;;2.70;2.20;;;25.90;68.80;;;;;;5032062;28;20459;-66
2023/04/22 12:18:06;;;;;;;2.80;2.30;;;25.50;68.90;;;;;;5031040;28;21083;-65
2023/04/22 12:20:34;;;;;;;4.50;2.37;;;25.60;71.00;;;;;;5031837;28;20485;-65
2023/04/22 12:23:02;;;;;;;3.80;2.50;;;26.00;70.10;;;;;;5032136;28;20466;-65
2023/04/22 12:25:29;;;;;;;4.43;2.67;;;26.30;72.60;;;;;;5032045;28;20512;-66
2023/04/22 12:27:57;;;;;;;2.90;2.03;;;26.60;72.40;;;;;;5032032;28;20454;-64
2023/04/22 12:30:24;;;;;;;3.43;2.63;;;26.60;70.00;;;;;;5030690;28;20470;-65
2023/04/22 12:32:52;;;;;;;3.90;2.80;;;26.20;73.60;;;;;;5032104;28;20489;-64
2023/04/22 12:35:19;;;;;;;3.40;2.27;;;25.80;71.00;;;;;;5031875;28;20494;-64
2023/04/22 12:37:46;;;;;;;3.43;2.30;;;26.10;72.20;;;;;;5031981;28;20558;-64
2023/04/22 12:40:13;;;;;;;3.40;2.30;;;26.10;73.10;;;;;;5031733;28;20963;-66
2023/04/22 12:42:40;;;;;;;2.73;2.30;;;25.60;69.00;;;;;;5031609;28;20490;-65
2023/04/22 12:45:11;;;;;;;2.80;2.30;;;25.50;72.10;;;;;;5031724;28;20455;-64
2023/04/22 12:47:38;;;;;;;2.40;2.07;;;25.30;71.80;;;;;;5030559;28;20469;-64
2023/04/22 12:50:06;;;;;;;4.20;2.37;;;25.30;74.80;;;;;;5031821;28;20459;-64
2023/04/22 12:52:35;;;;;;;4.30;2.50;;;25.60;74.90;;;;;;5031589;28;20867;-65
2023/04/22 12:55:04;;;;;;;3.27;2.30;;;25.90;71.60;;;;;;5031641;28;20454;-65
2023/04/22 12:57:32;;;;;;;3.93;2.10;;;26.40;74.90;;;;;;5031763;28;20447;-65